<?xml version='1.0' encoding='UTF-8'?><gpx version="1.1" creator="JPX - https://github.com/jenetics/jpx" xmlns="http://www.topografix.com/GPX/1/1"><trk><trkseg><trkpt lat="43.3211295259162" lon="11.124909729041075"><ele>263.0</ele><time>2026-04-11T16:00:24.999Z</time></trkpt><trkpt lat="43.32118355243559" lon="11.125004887519998"><ele>263.0</ele><time>2026-04-11T16:00:25.999Z</time></trkpt><trkpt lat="43.32124135583574" lon="11.125110132744748"><ele>263.0</ele><time>2026-04-11T16:00:26.999Z</time></trkpt><trkpt lat="43.321300766677915" lon="11.125220685054268"><ele>263.0</ele><time>2026-04-11T16:00:27.999Z</time></trkpt><trkpt lat="43.32134676517336" lon="11.125319427724035"><ele>263.0</ele><time>2026-04-11T16:00:28.999Z</time></trkpt><trkpt lat="43.321393402030246" lon="11.125410346982036"><ele>263.0</ele><time>2026-04-11T16:00:29.999Z</time></trkpt><trkpt lat="43.3214308985618" lon="11.125503430112701"><ele>263.0</ele><time>2026-04-11T16:00:30.999Z</time></trkpt><trkpt lat="43.32147475223941" lon="11.125607785029253"><ele>263.0</ele><time>2026-04-11T16:00:31.999Z</time></trkpt><trkpt lat="43.32148405901662" lon="11.12575548750445"><ele>263.0</ele><time>2026-04-11T16:00:33.999Z</time></trkpt><trkpt lat="43.32140736434762" lon="11.125799882752887"><ele>263.0</ele><time>2026-04-11T16:00:35.999Z</time></trkpt><trkpt lat="43.32131077980117" lon="11.12568086636837"><ele>263.0</ele><time>2026-04-11T16:00:37.999Z</time></trkpt><trkpt lat="43.32126340369246" lon="11.125591580567892"><ele>263.0</ele><time>2026-04-11T16:00:39Z</time></trkpt><trkpt lat="43.3212170458495" lon="11.125532768822303"><ele>263.0</ele><time>2026-04-11T16:00:40Z</time></trkpt><trkpt lat="43.321133128208416" lon="11.12551919570752"><ele>263.0</ele><time>2026-04-11T16:00:42Z</time></trkpt><trkpt lat="43.321174479829615" lon="11.125712369065653"><ele>263.0</ele><time>2026-04-11T16:00:44Z</time></trkpt><trkpt lat="43.321219559593466" lon="11.12585152667849"><ele>264.25</ele><time>2026-04-11T16:00:45Z</time></trkpt><trkpt lat="43.32128879668697" lon="11.12597046924388"><ele>265.5</ele><time>2026-04-11T16:00:46Z</time></trkpt><trkpt lat="43.32139385167084" lon="11.126022590683778"><ele>266.75</ele><time>2026-04-11T16:00:47Z</time></trkpt><trkpt lat="43.321534859515914" lon="11.126049749472017"><ele>268.0</ele><time>2026-04-11T16:00:48Z</time></trkpt><trkpt lat="43.32165297901619" lon="11.126086653976104"><ele>268.6</ele><time>2026-04-11T16:00:49Z</time></trkpt><trkpt lat="43.321733962421" lon="11.126137756776293"><ele>269.20000000000005</ele><time>2026-04-11T16:00:50Z</time></trkpt><trkpt lat="43.32174472870051" lon="11.126271092535331"><ele>269.8</ele><time>2026-04-11T16:00:52Z</time></trkpt><trkpt lat="43.321679163784715" lon="11.126292148767174"><ele>270.40000000000003</ele><time>2026-04-11T16:00:53Z</time></trkpt><trkpt lat="43.32158225621653" lon="11.126242741607129"><ele>271.0</ele><time>2026-04-11T16:00:54Z</time></trkpt><trkpt lat="43.32144992696396" lon="11.126192542945786"><ele>270.40000000000003</ele><time>2026-04-11T16:00:55Z</time></trkpt><trkpt lat="43.321314236985856" lon="11.126144839534502"><ele>269.8</ele><time>2026-04-11T16:00:56Z</time></trkpt><trkpt lat="43.321195964952366" lon="11.126062927843257"><ele>269.20000000000005</ele><time>2026-04-11T16:00:57Z</time></trkpt><trkpt lat="43.321114637542955" lon="11.12596089350128"><ele>268.6</ele><time>2026-04-11T16:00:58Z</time></trkpt><trkpt lat="43.32106918793227" lon="11.125893724505683"><ele>268.0</ele><time>2026-04-11T16:00:59Z</time></trkpt><trkpt lat="43.321023798917345" lon="11.125980368558032"><ele>268.0</ele><time>2026-04-11T16:01:02Z</time></trkpt><trkpt lat="43.32105898968776" lon="11.126085081004861"><ele>268.0</ele><time>2026-04-11T16:01:03Z</time></trkpt><trkpt lat="43.320964632204785" lon="11.12604336915576"><ele>268.0</ele><time>2026-04-11T16:01:06Z</time></trkpt><trkpt lat="43.32093265981009" lon="11.12596374910602"><ele>268.0</ele><time>2026-04-11T16:01:07Z</time></trkpt><trkpt lat="43.320872299042776" lon="11.126049893009505"><ele>268.0</ele><time>2026-04-11T16:01:09Z</time></trkpt><trkpt lat="43.320881092301605" lon="11.126170485325188"><ele>268.0</ele><time>2026-04-11T16:01:10Z</time></trkpt><trkpt lat="43.32092932047949" lon="11.126255995104186"><ele>268.0</ele><time>2026-04-11T16:01:11Z</time></trkpt><trkpt lat="43.321019655683884" lon="11.126288663868769"><ele>268.0</ele><time>2026-04-11T16:01:12Z</time></trkpt><trkpt lat="43.32115802073845" lon="11.12629990129654"><ele>268.0</ele><time>2026-04-11T16:01:13Z</time></trkpt><trkpt lat="43.32130408754735" lon="11.126313962103337"><ele>268.0</ele><time>2026-04-11T16:01:14Z</time></trkpt><trkpt lat="43.32144458497486" lon="11.126339960793091"><ele>268.5</ele><time>2026-04-11T16:01:15Z</time></trkpt><trkpt lat="43.32153339572817" lon="11.12637827002475"><ele>269.0</ele><time>2026-04-11T16:01:16Z</time></trkpt><trkpt lat="43.321601165556984" lon="11.126425520351182"><ele>269.5</ele><time>2026-04-11T16:01:17Z</time></trkpt><trkpt lat="43.32168119752086" lon="11.126444581136923"><ele>270.0</ele><time>2026-04-11T16:01:18Z</time></trkpt><trkpt lat="43.32176803268562" lon="11.126428976646002"><ele>270.5</ele><time>2026-04-11T16:01:19Z</time></trkpt><trkpt lat="43.32183053952687" lon="11.126452299220125"><ele>271.0</ele><time>2026-04-11T16:01:20Z</time></trkpt><trkpt lat="43.32186699000627" lon="11.126646555358876"><ele>271.75</ele><time>2026-04-11T16:01:22Z</time></trkpt><trkpt lat="43.32187861663169" lon="11.126807096775972"><ele>272.5</ele><time>2026-04-11T16:01:23Z</time></trkpt><trkpt lat="43.32192244517396" lon="11.126997316636807"><ele>273.25</ele><time>2026-04-11T16:01:24Z</time></trkpt><trkpt lat="43.3219792487736" lon="11.127164586050794"><ele>274.0</ele><time>2026-04-11T16:01:25Z</time></trkpt><trkpt lat="43.322022093995514" lon="11.127295848374116"><ele>274.66666666666663</ele><time>2026-04-11T16:01:26Z</time></trkpt><trkpt lat="43.32203395760645" lon="11.1274171954985"><ele>275.3333333333333</ele><time>2026-04-11T16:01:27Z</time></trkpt><trkpt lat="43.32201416911901" lon="11.127526670639883"><ele>276.0</ele><time>2026-04-11T16:01:28Z</time></trkpt><trkpt lat="43.321984078323815" lon="11.127608310439156"><ele>276.6666666666667</ele><time>2026-04-11T16:01:29Z</time></trkpt><trkpt lat="43.321925240859" lon="11.127654206464877"><ele>277.33333333333337</ele><time>2026-04-11T16:01:30Z</time></trkpt><trkpt lat="43.32181592387866" lon="11.127707118974408"><ele>278.0</ele><time>2026-04-11T16:01:32Z</time></trkpt><trkpt lat="43.32181351180588" lon="11.127582179061191"><ele>278.0</ele><time>2026-04-11T16:01:34Z</time></trkpt><trkpt lat="43.32186785929694" lon="11.12748224835217"><ele>278.0</ele><time>2026-04-11T16:01:35Z</time></trkpt><trkpt lat="43.32189929235903" lon="11.127385065539105"><ele>278.0</ele><time>2026-04-11T16:01:36Z</time></trkpt><trkpt lat="43.321907552385376" lon="11.127288432256833"><ele>278.0</ele><time>2026-04-11T16:01:37Z</time></trkpt><trkpt lat="43.32189205217243" lon="11.12719993232192"><ele>278.0</ele><time>2026-04-11T16:01:38Z</time></trkpt><trkpt lat="43.32185616701516" lon="11.127100521185513"><ele>278.0</ele><time>2026-04-11T16:01:39Z</time></trkpt><trkpt lat="43.32180560317483" lon="11.126959927083204"><ele>277.2</ele><time>2026-04-11T16:01:40Z</time></trkpt><trkpt lat="43.321765630982085" lon="11.126820888835475"><ele>276.4</ele><time>2026-04-11T16:01:41Z</time></trkpt><trkpt lat="43.32173303886452" lon="11.12670320622423"><ele>275.59999999999997</ele><time>2026-04-11T16:01:42Z</time></trkpt><trkpt lat="43.32165228151891" lon="11.126580817631686"><ele>274.8</ele><time>2026-04-11T16:01:44Z</time></trkpt><trkpt lat="43.3215661492458" lon="11.126623115791462"><ele>274.0</ele><time>2026-04-11T16:01:46Z</time></trkpt><trkpt lat="43.321616475043776" lon="11.126812549800668"><ele>274.0</ele><time>2026-04-11T16:01:48Z</time></trkpt><trkpt lat="43.321664035115006" lon="11.126972932316654"><ele>274.0</ele><time>2026-04-11T16:01:49Z</time></trkpt><trkpt lat="43.32168752596732" lon="11.127138510728043"><ele>274.0</ele><time>2026-04-11T16:01:50Z</time></trkpt><trkpt lat="43.32169015952305" lon="11.127289341376125"><ele>274.0</ele><time>2026-04-11T16:01:51Z</time></trkpt><trkpt lat="43.32168189097872" lon="11.127419035567094"><ele>274.8</ele><time>2026-04-11T16:01:52Z</time></trkpt><trkpt lat="43.32167207700608" lon="11.127560485572333"><ele>275.59999999999997</ele><time>2026-04-11T16:01:53Z</time></trkpt><trkpt lat="43.32166229184489" lon="11.127692868672353"><ele>276.4</ele><time>2026-04-11T16:01:53.999Z</time></trkpt><trkpt lat="43.321641781738904" lon="11.127803525338306"><ele>277.2</ele><time>2026-04-11T16:01:54.999Z</time></trkpt><trkpt lat="43.32154125681807" lon="11.127820144933608"><ele>278.0</ele><time>2026-04-11T16:01:56.999Z</time></trkpt><trkpt lat="43.321506600512" lon="11.127736267549357"><ele>278.0</ele><time>2026-04-11T16:01:57.999Z</time></trkpt><trkpt lat="43.32150730686853" lon="11.127622677810736"><ele>278.0</ele><time>2026-04-11T16:01:58.999Z</time></trkpt><trkpt lat="43.321544723239526" lon="11.127498290384338"><ele>278.0</ele><time>2026-04-11T16:01:59.999Z</time></trkpt><trkpt lat="43.321565880201064" lon="11.127372712591777"><ele>278.0</ele><time>2026-04-11T16:02:00.999Z</time></trkpt><trkpt lat="43.32157194562005" lon="11.12726195717586"><ele>278.0</ele><time>2026-04-11T16:02:01.999Z</time></trkpt><trkpt lat="43.32157167910295" lon="11.127135331034367"><ele>278.0</ele><time>2026-04-11T16:02:02.999Z</time></trkpt><trkpt lat="43.32155544841076" lon="11.126978647671757"><ele>277.2</ele><time>2026-04-11T16:02:03.999Z</time></trkpt><trkpt lat="43.32153411250953" lon="11.12682137581241"><ele>276.4</ele><time>2026-04-11T16:02:04.999Z</time></trkpt><trkpt lat="43.3215111024792" lon="11.126690188881957"><ele>275.59999999999997</ele><time>2026-04-11T16:02:05.999Z</time></trkpt><trkpt lat="43.32148270634639" lon="11.126603664998443"><ele>274.8</ele><time>2026-04-11T16:02:06.999Z</time></trkpt><trkpt lat="43.321389177736" lon="11.126529542098208"><ele>274.0</ele><time>2026-04-11T16:02:08.999Z</time></trkpt><trkpt lat="43.32133485725373" lon="11.12666827702487"><ele>273.66666666666663</ele><time>2026-04-11T16:02:10.999Z</time></trkpt><trkpt lat="43.32135682370892" lon="11.126776343535935"><ele>273.3333333333333</ele><time>2026-04-11T16:02:11.999Z</time></trkpt><trkpt lat="43.32136216550704" lon="11.126863781511403"><ele>273.0</ele><time>2026-04-11T16:02:12.999Z</time></trkpt><trkpt lat="43.32128679740051" lon="11.126838235278214"><ele>272.6666666666667</ele><time>2026-04-11T16:02:14.999Z</time></trkpt><trkpt lat="43.32126896286178" lon="11.126719568461217"><ele>272.33333333333337</ele><time>2026-04-11T16:02:15.999Z</time></trkpt><trkpt lat="43.32124049441124" lon="11.126573986766433"><ele>272.0</ele><time>2026-04-11T16:02:16.999Z</time></trkpt><trkpt lat="43.32120590533588" lon="11.126478079302727"><ele>272.0</ele><time>2026-04-11T16:02:17.999Z</time></trkpt><trkpt lat="43.32112794132531" lon="11.126474175319077"><ele>272.0</ele><time>2026-04-11T16:02:19.999Z</time></trkpt><trkpt lat="43.321125240538244" lon="11.126659293008021"><ele>272.0</ele><time>2026-04-11T16:02:21.999Z</time></trkpt><trkpt lat="43.32115418629347" lon="11.126781401050776"><ele>272.0</ele><time>2026-04-11T16:02:22.999Z</time></trkpt><trkpt lat="43.321199245842806" lon="11.126925762142623"><ele>272.0</ele><time>2026-04-11T16:02:23.999Z</time></trkpt><trkpt lat="43.321270278568406" lon="11.127014504286173"><ele>272.0</ele><time>2026-04-11T16:02:24.999Z</time></trkpt><trkpt lat="43.32137511785847" lon="11.12706184259485"><ele>272.0</ele><time>2026-04-11T16:02:25.999Z</time></trkpt><trkpt lat="43.321441572476495" lon="11.127102047587147"><ele>272.0</ele><time>2026-04-11T16:02:26.999Z</time></trkpt><trkpt lat="43.32146256357072" lon="11.127302038781497"><ele>272.0</ele><time>2026-04-11T16:02:28.999Z</time></trkpt><trkpt lat="43.321450969534276" lon="11.127445794026963"><ele>272.0</ele><time>2026-04-11T16:02:29.999Z</time></trkpt><trkpt lat="43.32143414894886" lon="11.127543337023498"><ele>272.5</ele><time>2026-04-11T16:02:31Z</time></trkpt><trkpt lat="43.321399746343836" lon="11.127692566850337"><ele>273.0</ele><time>2026-04-11T16:02:33Z</time></trkpt><trkpt lat="43.321387844672756" lon="11.127810071616961"><ele>273.5</ele><time>2026-04-11T16:02:34Z</time></trkpt><trkpt lat="43.32137542580348" lon="11.127931521675384"><ele>274.0</ele><time>2026-04-11T16:02:35Z</time></trkpt><trkpt lat="43.321293432891224" lon="11.127975406215668"><ele>274.5</ele><time>2026-04-11T16:02:37Z</time></trkpt><trkpt lat="43.3212650783223" lon="11.127885851397279"><ele>275.0</ele><time>2026-04-11T16:02:38Z</time></trkpt><trkpt lat="43.32127405712164" lon="11.12776591847981"><ele>275.0</ele><time>2026-04-11T16:02:39Z</time></trkpt><trkpt lat="43.3212967448507" lon="11.127605440142853"><ele>275.0</ele><time>2026-04-11T16:02:40Z</time></trkpt><trkpt lat="43.321311627099426" lon="11.127497125543998"><ele>275.0</ele><time>2026-04-11T16:02:41Z</time></trkpt><trkpt lat="43.321323391819746" lon="11.127323625689442"><ele>275.0</ele><time>2026-04-11T16:02:43Z</time></trkpt><trkpt lat="43.32128805726749" lon="11.12718599222758"><ele>275.0</ele><time>2026-04-11T16:02:45Z</time></trkpt><trkpt lat="43.321206937386165" lon="11.127210112711627"><ele>275.0</ele><time>2026-04-11T16:02:47Z</time></trkpt><trkpt lat="43.3211962894982" lon="11.127315221586326"><ele>275.0</ele><time>2026-04-11T16:02:48Z</time></trkpt><trkpt lat="43.32118412268378" lon="11.127402481325058"><ele>275.0</ele><time>2026-04-11T16:02:49Z</time></trkpt><trkpt lat="43.32111540854299" lon="11.12730510191066"><ele>275.0</ele><time>2026-04-11T16:02:51Z</time></trkpt><trkpt lat="43.32111097649739" lon="11.127154687481205"><ele>275.0</ele><time>2026-04-11T16:02:52Z</time></trkpt><trkpt lat="43.32109852669311" lon="11.127027741096517"><ele>275.0</ele><time>2026-04-11T16:02:53Z</time></trkpt><trkpt lat="43.32103921724055" lon="11.126957754496146"><ele>275.0</ele><time>2026-04-11T16:02:55Z</time></trkpt><trkpt lat="43.32099676088907" lon="11.127085537739953"><ele>275.0</ele><time>2026-04-11T16:02:57Z</time></trkpt><trkpt lat="43.32099954190327" lon="11.127224701498303"><ele>275.0</ele><time>2026-04-11T16:02:58Z</time></trkpt><trkpt lat="43.32101965897955" lon="11.127392318940055"><ele>275.0</ele><time>2026-04-11T16:02:59Z</time></trkpt><trkpt lat="43.321048512443625" lon="11.127546507621533"><ele>275.0</ele><time>2026-04-11T16:03:00Z</time></trkpt><trkpt lat="43.321077229747544" lon="11.127627757383229"><ele>275.0</ele><time>2026-04-11T16:03:01Z</time></trkpt><trkpt lat="43.32111097981836" lon="11.127721191529833"><ele>275.0</ele><time>2026-04-11T16:03:02Z</time></trkpt><trkpt lat="43.32115094603599" lon="11.127847334842846"><ele>275.0</ele><time>2026-04-11T16:03:03Z</time></trkpt><trkpt lat="43.32117911544181" lon="11.127967121763332"><ele>275.0</ele><time>2026-04-11T16:03:04Z</time></trkpt><trkpt lat="43.32109641236845" lon="11.12808739481291"><ele>275.0</ele><time>2026-04-11T16:03:06Z</time></trkpt><trkpt lat="43.32100247220762" lon="11.128113256627277"><ele>275.0</ele><time>2026-04-11T16:03:07Z</time></trkpt><trkpt lat="43.32089349648209" lon="11.128140282863367"><ele>275.0</ele><time>2026-04-11T16:03:08Z</time></trkpt><trkpt lat="43.32078347642174" lon="11.128184188927985"><ele>275.0</ele><time>2026-04-11T16:03:09Z</time></trkpt><trkpt lat="43.32067676651539" lon="11.128228896756795"><ele>275.0</ele><time>2026-04-11T16:03:10Z</time></trkpt><trkpt lat="43.32059811045311" lon="11.128259021044304"><ele>275.0</ele><time>2026-04-11T16:03:11Z</time></trkpt><trkpt lat="43.320508346241766" lon="11.128213376548564"><ele>275.0</ele><time>2026-04-11T16:03:13Z</time></trkpt><trkpt lat="43.320472235415345" lon="11.128116403530647"><ele>275.0</ele><time>2026-04-11T16:03:14Z</time></trkpt><trkpt lat="43.32044933270405" lon="11.127997715638804"><ele>275.0</ele><time>2026-04-11T16:03:15Z</time></trkpt><trkpt lat="43.32046719647676" lon="11.127906864256078"><ele>275.0</ele><time>2026-04-11T16:03:16Z</time></trkpt><trkpt lat="43.3205728813844" lon="11.127871880998422"><ele>275.0</ele><time>2026-04-11T16:03:18Z</time></trkpt><trkpt lat="43.32064284487307" lon="11.12791830094512"><ele>275.0</ele><time>2026-04-11T16:03:19Z</time></trkpt><trkpt lat="43.320736953686264" lon="11.127972283608935"><ele>275.0</ele><time>2026-04-11T16:03:20Z</time></trkpt><trkpt lat="43.32083472735088" lon="11.12797754702762"><ele>275.0</ele><time>2026-04-11T16:03:21Z</time></trkpt><trkpt lat="43.32090367559015" lon="11.127940207969843"><ele>275.0</ele><time>2026-04-11T16:03:22Z</time></trkpt><trkpt lat="43.32091532313714" lon="11.12774946505325"><ele>275.0</ele><time>2026-04-11T16:03:24Z</time></trkpt><trkpt lat="43.32089837465835" lon="11.127628682924106"><ele>275.0</ele><time>2026-04-11T16:03:25Z</time></trkpt><trkpt lat="43.32088118057911" lon="11.127462679357276"><ele>275.0</ele><time>2026-04-11T16:03:27Z</time></trkpt><trkpt lat="43.320882875504054" lon="11.127342628089615"><ele>275.0</ele><time>2026-04-11T16:03:28Z</time></trkpt><trkpt lat="43.32088183046194" lon="11.127231103940545"><ele>275.0</ele><time>2026-04-11T16:03:29Z</time></trkpt><trkpt lat="43.320855629409664" lon="11.127143655347597"><ele>275.0</ele><time>2026-04-11T16:03:30Z</time></trkpt><trkpt lat="43.320763047721066" lon="11.127097720873786"><ele>275.0</ele><time>2026-04-11T16:03:32Z</time></trkpt><trkpt lat="43.320728828557556" lon="11.127227311583495"><ele>275.0</ele><time>2026-04-11T16:03:34Z</time></trkpt><trkpt lat="43.320757742084226" lon="11.127431874308597"><ele>275.0</ele><time>2026-04-11T16:03:36Z</time></trkpt><trkpt lat="43.32075958976189" lon="11.127569284707185"><ele>275.0</ele><time>2026-04-11T16:03:37Z</time></trkpt><trkpt lat="43.32075820753731" lon="11.12768358774187"><ele>275.0</ele><time>2026-04-11T16:03:38Z</time></trkpt><trkpt lat="43.3206759328044" lon="11.127764710913423"><ele>275.0</ele><time>2026-04-11T16:03:40Z</time></trkpt><trkpt lat="43.320570423082536" lon="11.127762054699582"><ele>275.0</ele><time>2026-04-11T16:03:41Z</time></trkpt><trkpt lat="43.320461623417785" lon="11.127745885719381"><ele>275.0</ele><time>2026-04-11T16:03:42Z</time></trkpt><trkpt lat="43.32038075756301" lon="11.12773669486925"><ele>275.0</ele><time>2026-04-11T16:03:43Z</time></trkpt><trkpt lat="43.32032372501509" lon="11.1276795294822"><ele>275.0</ele><time>2026-04-11T16:03:45Z</time></trkpt><trkpt lat="43.32039028089367" lon="11.127560972216179"><ele>275.0</ele><time>2026-04-11T16:03:47Z</time></trkpt><trkpt lat="43.32049402554483" lon="11.127578815908066"><ele>275.0</ele><time>2026-04-11T16:03:49Z</time></trkpt><trkpt lat="43.3205733529125" lon="11.127562016664713"><ele>275.0</ele><time>2026-04-11T16:03:50Z</time></trkpt><trkpt lat="43.32064240697813" lon="11.127536520793106"><ele>275.0</ele><time>2026-04-11T16:03:51Z</time></trkpt><trkpt lat="43.320597790968314" lon="11.127422021109835"><ele>275.0</ele><time>2026-04-11T16:03:53Z</time></trkpt><trkpt lat="43.320505163597616" lon="11.127413051139222"><ele>275.0</ele><time>2026-04-11T16:03:54Z</time></trkpt><trkpt lat="43.320403687295936" lon="11.127446157739248"><ele>275.0</ele><time>2026-04-11T16:03:55Z</time></trkpt><trkpt lat="43.32032393414294" lon="11.127436185756121"><ele>275.0</ele><time>2026-04-11T16:03:57Z</time></trkpt><trkpt lat="43.32036959380828" lon="11.127339666306698"><ele>274.5</ele><time>2026-04-11T16:03:59Z</time></trkpt><trkpt lat="43.32042995317765" lon="11.127312529638944"><ele>274.0</ele><time>2026-04-11T16:04:00Z</time></trkpt><trkpt lat="43.320522294291315" lon="11.127285181602971"><ele>273.5</ele><time>2026-04-11T16:04:01Z</time></trkpt><trkpt lat="43.32060363078706" lon="11.127249239757234"><ele>273.0</ele><time>2026-04-11T16:04:02Z</time></trkpt><trkpt lat="43.32063258471557" lon="11.127170958215213"><ele>272.5</ele><time>2026-04-11T16:04:03Z</time></trkpt><trkpt lat="43.32065722859239" lon="11.127047114039062"><ele>272.0</ele><time>2026-04-11T16:04:04Z</time></trkpt><trkpt lat="43.32069722342784" lon="11.126976808015195"><ele>272.0</ele><time>2026-04-11T16:04:05Z</time></trkpt><trkpt lat="43.32078847139103" lon="11.126934604757812"><ele>272.0</ele><time>2026-04-11T16:04:06Z</time></trkpt><trkpt lat="43.320906089446545" lon="11.12688931595738"><ele>272.0</ele><time>2026-04-11T16:04:07Z</time></trkpt><trkpt lat="43.32099501515623" lon="11.126852901608379"><ele>272.0</ele><time>2026-04-11T16:04:08Z</time></trkpt><trkpt lat="43.321056757867574" lon="11.126776650222357"><ele>272.0</ele><time>2026-04-11T16:04:10Z</time></trkpt><trkpt lat="43.32097431525176" lon="11.126684035586022"><ele>272.0</ele><time>2026-04-11T16:04:12Z</time></trkpt><trkpt lat="43.320898087116525" lon="11.126721040471747"><ele>272.0</ele><time>2026-04-11T16:04:13Z</time></trkpt><trkpt lat="43.32080405729626" lon="11.126793359503148"><ele>272.0</ele><time>2026-04-11T16:04:14Z</time></trkpt><trkpt lat="43.320701626823244" lon="11.12685468517777"><ele>272.0</ele><time>2026-04-11T16:04:15Z</time></trkpt><trkpt lat="43.320616319439836" lon="11.126887031630806"><ele>272.0</ele><time>2026-04-11T16:04:16Z</time></trkpt><trkpt lat="43.320552096936105" lon="11.126919090880682"><ele>271.83333333333337</ele><time>2026-04-11T16:04:17Z</time></trkpt><trkpt lat="43.320507506468026" lon="11.126981477682428"><ele>271.6666666666667</ele><time>2026-04-11T16:04:18Z</time></trkpt><trkpt lat="43.320487342028066" lon="11.127073929750496"><ele>271.5</ele><time>2026-04-11T16:04:19Z</time></trkpt><trkpt lat="43.32046422410935" lon="11.127175672493092"><ele>271.3333333333333</ele><time>2026-04-11T16:04:21Z</time></trkpt><trkpt lat="43.32042279773893" lon="11.12703555741913"><ele>271.16666666666663</ele><time>2026-04-11T16:04:23Z</time></trkpt><trkpt lat="43.32040974626963" lon="11.126939500866332"><ele>271.0</ele><time>2026-04-11T16:04:24Z</time></trkpt><trkpt lat="43.320319844556856" lon="11.12696615386915"><ele>271.0</ele><time>2026-04-11T16:04:26Z</time></trkpt><trkpt lat="43.32032736975719" lon="11.127153885711355"><ele>271.0</ele><time>2026-04-11T16:04:28Z</time></trkpt><trkpt lat="43.32026264660599" lon="11.127234819554552"><ele>271.0</ele><time>2026-04-11T16:04:30Z</time></trkpt><trkpt lat="43.32021070981961" lon="11.127175484261704"><ele>271.0</ele><time>2026-04-11T16:04:31Z</time></trkpt><trkpt lat="43.32017554877155" lon="11.127060438971967"><ele>271.0</ele><time>2026-04-11T16:04:32Z</time></trkpt><trkpt lat="43.32015334399389" lon="11.126944634410979"><ele>271.0</ele><time>2026-04-11T16:04:33Z</time></trkpt><trkpt lat="43.32015364309699" lon="11.126855888871807"><ele>271.0</ele><time>2026-04-11T16:04:34Z</time></trkpt><trkpt lat="43.32024862496115" lon="11.126826046072036"><ele>271.0</ele><time>2026-04-11T16:04:36Z</time></trkpt><trkpt lat="43.32032531348542" lon="11.126816922940675"><ele>271.0</ele><time>2026-04-11T16:04:37Z</time></trkpt><trkpt lat="43.32043803584943" lon="11.126777657684405"><ele>271.0</ele><time>2026-04-11T16:04:38Z</time></trkpt><trkpt lat="43.32054704344501" lon="11.126745292669513"><ele>271.16666666666663</ele><time>2026-04-11T16:04:39Z</time></trkpt><trkpt lat="43.32064574257523" lon="11.12671885754664"><ele>271.3333333333333</ele><time>2026-04-11T16:04:40Z</time></trkpt><trkpt lat="43.32070752616926" lon="11.126669466766673"><ele>271.5</ele><time>2026-04-11T16:04:41Z</time></trkpt><trkpt lat="43.32072882540372" lon="11.12658678035497"><ele>271.6666666666667</ele><time>2026-04-11T16:04:42Z</time></trkpt><trkpt lat="43.320805511251635" lon="11.126540541261658"><ele>271.83333333333337</ele><time>2026-04-11T16:04:44Z</time></trkpt><trkpt lat="43.32087306087024" lon="11.12661311997974"><ele>272.0</ele><time>2026-04-11T16:04:45Z</time></trkpt><trkpt lat="43.32095330397391" lon="11.126635004104612"><ele>271.33333333333337</ele><time>2026-04-11T16:04:46Z</time></trkpt><trkpt lat="43.32101936424417" lon="11.126523583950592"><ele>270.6666666666667</ele><time>2026-04-11T16:04:48Z</time></trkpt><trkpt lat="43.32099247148907" lon="11.126442790328532"><ele>270.0</ele><time>2026-04-11T16:04:49Z</time></trkpt><trkpt lat="43.32093151420901" lon="11.126356147706252"><ele>269.3333333333333</ele><time>2026-04-11T16:04:50Z</time></trkpt><trkpt lat="43.32086060750583" lon="11.126305320952488"><ele>268.66666666666663</ele><time>2026-04-11T16:04:51Z</time></trkpt><trkpt lat="43.32077741823957" lon="11.12630057147637"><ele>268.0</ele><time>2026-04-11T16:04:52Z</time></trkpt><trkpt lat="43.32070895999977" lon="11.126348564046431"><ele>268.0</ele><time>2026-04-11T16:04:53Z</time></trkpt><trkpt lat="43.32064555578297" lon="11.126436055868517"><ele>268.0</ele><time>2026-04-11T16:04:54Z</time></trkpt><trkpt lat="43.32058555194566" lon="11.126552238936652"><ele>268.0</ele><time>2026-04-11T16:04:55Z</time></trkpt><trkpt lat="43.320526090450514" lon="11.126624922630866"><ele>268.0</ele><time>2026-04-11T16:04:56Z</time></trkpt><trkpt lat="43.32044396393314" lon="11.126654375791354"><ele>268.0</ele><time>2026-04-11T16:04:57Z</time></trkpt><trkpt lat="43.32034084115683" lon="11.126676763193975"><ele>268.4</ele><time>2026-04-11T16:04:58Z</time></trkpt><trkpt lat="43.3202367973403" lon="11.126709090047623"><ele>268.8</ele><time>2026-04-11T16:04:59Z</time></trkpt><trkpt lat="43.320153079485415" lon="11.126731122899507"><ele>269.2</ele><time>2026-04-11T16:05:00Z</time></trkpt><trkpt lat="43.3201447995969" lon="11.126609897076047"><ele>269.6</ele><time>2026-04-11T16:05:03Z</time></trkpt><trkpt lat="43.32028608463066" lon="11.126569620664574"><ele>270.0</ele><time>2026-04-11T16:05:05Z</time></trkpt><trkpt lat="43.32039770059613" lon="11.12654981182437"><ele>270.0</ele><time>2026-04-11T16:05:06Z</time></trkpt><trkpt lat="43.32048555651042" lon="11.126544150047787"><ele>270.0</ele><time>2026-04-11T16:05:07Z</time></trkpt><trkpt lat="43.32047744953046" lon="11.126453232877642"><ele>270.0</ele><time>2026-04-11T16:05:09Z</time></trkpt><trkpt lat="43.32039794129076" lon="11.126421211733899"><ele>270.0</ele><time>2026-04-11T16:05:11Z</time></trkpt><trkpt lat="43.32048126082324" lon="11.126334932882544"><ele>270.0</ele><time>2026-04-11T16:05:14Z</time></trkpt><trkpt lat="43.32040327842118" lon="11.126273196588148"><ele>270.0</ele><time>2026-04-11T16:05:16Z</time></trkpt><trkpt lat="43.320322825734074" lon="11.126312314110514"><ele>270.0</ele><time>2026-04-11T16:05:17Z</time></trkpt><trkpt lat="43.32027015948917" lon="11.126386657763378"><ele>270.0</ele><time>2026-04-11T16:05:18Z</time></trkpt><trkpt lat="43.32022747319403" lon="11.126497024009186"><ele>270.0</ele><time>2026-04-11T16:05:19Z</time></trkpt><trkpt lat="43.32013012773285" lon="11.126538706055065"><ele>270.0</ele><time>2026-04-11T16:05:21Z</time></trkpt><trkpt lat="43.32009691082787" lon="11.126416472019521"><ele>270.0</ele><time>2026-04-11T16:05:23Z</time></trkpt><trkpt lat="43.3201600642643" lon="11.126352473502987"><ele>270.0</ele><time>2026-04-11T16:05:24Z</time></trkpt><trkpt lat="43.32023441690124" lon="11.126266827714163"><ele>270.0</ele><time>2026-04-11T16:05:25Z</time></trkpt><trkpt lat="43.32031158475098" lon="11.126170057781465"><ele>270.0</ele><time>2026-04-11T16:05:26Z</time></trkpt><trkpt lat="43.32038243400495" lon="11.126141727817755"><ele>270.0</ele><time>2026-04-11T16:05:27Z</time></trkpt><trkpt lat="43.32046749614511" lon="11.126155077236628"><ele>270.0</ele><time>2026-04-11T16:05:28Z</time></trkpt><trkpt lat="43.32053487930064" lon="11.126209546774165"><ele>270.0</ele><time>2026-04-11T16:05:29Z</time></trkpt><trkpt lat="43.320572176866854" lon="11.126302394913898"><ele>270.0</ele><time>2026-04-11T16:05:30Z</time></trkpt><trkpt lat="43.32066868541821" lon="11.126310985004357"><ele>270.0</ele><time>2026-04-11T16:05:32Z</time></trkpt><trkpt lat="43.32072319430587" lon="11.126229902887594"><ele>270.0</ele><time>2026-04-11T16:05:33Z</time></trkpt><trkpt lat="43.3207735152099" lon="11.12615460725546"><ele>270.0</ele><time>2026-04-11T16:05:34Z</time></trkpt><trkpt lat="43.32076039900761" lon="11.126042688872635"><ele>270.0</ele><time>2026-04-11T16:05:36Z</time></trkpt><trkpt lat="43.320690273634504" lon="11.126018922921663"><ele>270.0</ele><time>2026-04-11T16:05:37Z</time></trkpt><trkpt lat="43.320592387344526" lon="11.126037288912688"><ele>270.0</ele><time>2026-04-11T16:05:38Z</time></trkpt><trkpt lat="43.32047756749736" lon="11.126046015527573"><ele>270.0</ele><time>2026-04-11T16:05:39Z</time></trkpt><trkpt lat="43.32037885056669" lon="11.126047658948938"><ele>270.0</ele><time>2026-04-11T16:05:40Z</time></trkpt><trkpt lat="43.32030247587566" lon="11.12605965334219"><ele>270.0</ele><time>2026-04-11T16:05:41Z</time></trkpt><trkpt lat="43.3202330026743" lon="11.126114365554185"><ele>270.0</ele><time>2026-04-11T16:05:42Z</time></trkpt><trkpt lat="43.32016716095663" lon="11.126201008274947"><ele>270.0</ele><time>2026-04-11T16:05:43Z</time></trkpt><trkpt lat="43.320097920805765" lon="11.12625110687114"><ele>270.0</ele><time>2026-04-11T16:05:45Z</time></trkpt><trkpt lat="43.32010597591146" lon="11.126049869127556"><ele>270.0</ele><time>2026-04-11T16:05:47Z</time></trkpt><trkpt lat="43.32015222580608" lon="11.125947335437365"><ele>270.0</ele><time>2026-04-11T16:05:48Z</time></trkpt><trkpt lat="43.320214879486656" lon="11.12588241232936"><ele>270.0</ele><time>2026-04-11T16:05:49Z</time></trkpt><trkpt lat="43.32027994651415" lon="11.125873179300262"><ele>270.0</ele><time>2026-04-11T16:05:50Z</time></trkpt><trkpt lat="43.32038315584925" lon="11.125921066872188"><ele>270.0</ele><time>2026-04-11T16:05:51Z</time></trkpt><trkpt lat="43.32048813421393" lon="11.125958898788848"><ele>270.0</ele><time>2026-04-11T16:05:52Z</time></trkpt><trkpt lat="43.320575935314494" lon="11.125962839091466"><ele>270.0</ele><time>2026-04-11T16:05:53Z</time></trkpt><trkpt lat="43.32064658429199" lon="11.125862645602211"><ele>270.0</ele><time>2026-04-11T16:05:55Z</time></trkpt><trkpt lat="43.32061877004391" lon="11.125774017330604"><ele>270.0</ele><time>2026-04-11T16:05:56Z</time></trkpt><trkpt lat="43.3205516077207" lon="11.125738631126447"><ele>270.0</ele><time>2026-04-11T16:05:57Z</time></trkpt><trkpt lat="43.320452376396155" lon="11.125751902898111"><ele>270.0</ele><time>2026-04-11T16:05:58Z</time></trkpt><trkpt lat="43.320312557433866" lon="11.12577408824065"><ele>270.0</ele><time>2026-04-11T16:05:59Z</time></trkpt><trkpt lat="43.32019549897657" lon="11.125789457953953"><ele>270.0</ele><time>2026-04-11T16:06:00Z</time></trkpt><trkpt lat="43.32011218064649" lon="11.125748786526978"><ele>270.0</ele><time>2026-04-11T16:06:02Z</time></trkpt><trkpt lat="43.32017369213099" lon="11.12563148036325"><ele>270.0</ele><time>2026-04-11T16:06:04Z</time></trkpt><trkpt lat="43.32024218154286" lon="11.125628983410625"><ele>270.0</ele><time>2026-04-11T16:06:05Z</time></trkpt><trkpt lat="43.320328922381734" lon="11.125649322155688"><ele>269.6</ele><time>2026-04-11T16:06:06Z</time></trkpt><trkpt lat="43.320455652601886" lon="11.125638747177815"><ele>269.2</ele><time>2026-04-11T16:06:07Z</time></trkpt><trkpt lat="43.32058232860395" lon="11.125646896117754"><ele>268.8</ele><time>2026-04-11T16:06:08Z</time></trkpt><trkpt lat="43.32067848960063" lon="11.125692116829468"><ele>268.4</ele><time>2026-04-11T16:06:09Z</time></trkpt><trkpt lat="43.32073275459621" lon="11.125766867105279"><ele>268.0</ele><time>2026-04-11T16:06:10Z</time></trkpt><trkpt lat="43.32077132238555" lon="11.125867530563017"><ele>268.0</ele><time>2026-04-11T16:06:11Z</time></trkpt><trkpt lat="43.32082939173757" lon="11.125957809029186"><ele>268.0</ele><time>2026-04-11T16:06:13Z</time></trkpt><trkpt lat="43.32090076923687" lon="11.125896693306993"><ele>268.0</ele><time>2026-04-11T16:06:14Z</time></trkpt><trkpt lat="43.320986268187845" lon="11.125815244509578"><ele>268.0</ele><time>2026-04-11T16:06:15Z</time></trkpt><trkpt lat="43.32104181773913" lon="11.125708441038814"><ele>268.0</ele><time>2026-04-11T16:06:17Z</time></trkpt><trkpt lat="43.32095404134238" lon="11.125586241013853"><ele>267.6</ele><time>2026-04-11T16:06:19Z</time></trkpt><trkpt lat="43.320867384615674" lon="11.12555947130168"><ele>267.20000000000005</ele><time>2026-04-11T16:06:20Z</time></trkpt><trkpt lat="43.32080422457748" lon="11.125625969161343"><ele>266.8</ele><time>2026-04-11T16:06:22Z</time></trkpt><trkpt lat="43.32071769961376" lon="11.125604599213736"><ele>266.40000000000003</ele><time>2026-04-11T16:06:25Z</time></trkpt><trkpt lat="43.32064216813132" lon="11.125511750988416"><ele>266.0</ele><time>2026-04-11T16:06:26Z</time></trkpt><trkpt lat="43.320532943507125" lon="11.125476238266941"><ele>266.0</ele><time>2026-04-11T16:06:27Z</time></trkpt><trkpt lat="43.320453538856626" lon="11.125463499022146"><ele>266.0</ele><time>2026-04-11T16:06:28Z</time></trkpt><trkpt lat="43.320353190101365" lon="11.125493711858814"><ele>266.0</ele><time>2026-04-11T16:06:30Z</time></trkpt><trkpt lat="43.32025349382859" lon="11.125522089461457"><ele>266.0</ele><time>2026-04-11T16:06:31Z</time></trkpt><trkpt lat="43.320160665734" lon="11.125517973314043"><ele>266.0</ele><time>2026-04-11T16:06:32Z</time></trkpt><trkpt lat="43.32009414697228" lon="11.125485606847889"><ele>266.0</ele><time>2026-04-11T16:06:33Z</time></trkpt><trkpt lat="43.32004258866392" lon="11.125405822255308"><ele>266.0</ele><time>2026-04-11T16:06:34Z</time></trkpt><trkpt lat="43.32000872709483" lon="11.125290869443063"><ele>266.0</ele><time>2026-04-11T16:06:35Z</time></trkpt><trkpt lat="43.32000135158383" lon="11.125172922271888"><ele>266.0</ele><time>2026-04-11T16:06:36Z</time></trkpt><trkpt lat="43.32001965391972" lon="11.125082129591178"><ele>266.0</ele><time>2026-04-11T16:06:37Z</time></trkpt><trkpt lat="43.320070273773204" lon="11.125021869260083"><ele>266.0</ele><time>2026-04-11T16:06:38Z</time></trkpt><trkpt lat="43.320167063407965" lon="11.125045395814727"><ele>266.0</ele><time>2026-04-11T16:06:40Z</time></trkpt><trkpt lat="43.32017785817344" lon="11.125142244291043"><ele>266.0</ele><time>2026-04-11T16:06:41Z</time></trkpt><trkpt lat="43.32015130984712" lon="11.125252211611716"><ele>266.0</ele><time>2026-04-11T16:06:42Z</time></trkpt><trkpt lat="43.32019984333931" lon="11.125329545826146"><ele>266.0</ele><time>2026-04-11T16:06:44Z</time></trkpt><trkpt lat="43.32027961143364" lon="11.12532667891437"><ele>266.0</ele><time>2026-04-11T16:06:45Z</time></trkpt><trkpt lat="43.320343677771" lon="11.1253590952831"><ele>266.0</ele><time>2026-04-11T16:06:46Z</time></trkpt><trkpt lat="43.32040727957049" lon="11.125348126952762"><ele>266.0</ele><time>2026-04-11T16:06:47Z</time></trkpt><trkpt lat="43.32048867220722" lon="11.125343659383173"><ele>265.25</ele><time>2026-04-11T16:06:48Z</time></trkpt><trkpt lat="43.320605948466756" lon="11.125374720814152"><ele>264.5</ele><time>2026-04-11T16:06:49Z</time></trkpt><trkpt lat="43.32073402013408" lon="11.125422321756528"><ele>263.75</ele><time>2026-04-11T16:06:50Z</time></trkpt><trkpt lat="43.32085803827805" lon="11.125450823051553"><ele>263.0</ele><time>2026-04-11T16:06:51Z</time></trkpt><trkpt lat="43.32095763621706" lon="11.125458915390675"><ele>263.0</ele><time>2026-04-11T16:06:52Z</time></trkpt><trkpt lat="43.32102414098489" lon="11.125455252707164"><ele>263.0</ele><time>2026-04-11T16:06:53Z</time></trkpt><trkpt lat="43.32105264783224" lon="11.125367868127848"><ele>263.0</ele><time>2026-04-11T16:06:55Z</time></trkpt><trkpt lat="43.32100308273413" lon="11.125312204936199"><ele>263.0</ele><time>2026-04-11T16:06:56Z</time></trkpt><trkpt lat="43.32091330264641" lon="11.125313663220972"><ele>263.0</ele><time>2026-04-11T16:06:57Z</time></trkpt><trkpt lat="43.320791752014856" lon="11.12533192600336"><ele>263.0</ele><time>2026-04-11T16:06:58Z</time></trkpt><trkpt lat="43.320677052293675" lon="11.125307678964083"><ele>263.0</ele><time>2026-04-11T16:06:59Z</time></trkpt><trkpt lat="43.320588419464144" lon="11.125275591516925"><ele>263.0</ele><time>2026-04-11T16:07:00Z</time></trkpt><trkpt lat="43.32051376473594" lon="11.12522187505723"><ele>263.0</ele><time>2026-04-11T16:07:02Z</time></trkpt><trkpt lat="43.32060754993485" lon="11.12513474238956"><ele>263.0</ele><time>2026-04-11T16:07:04Z</time></trkpt><trkpt lat="43.320695087326285" lon="11.125148662690254"><ele>263.0</ele><time>2026-04-11T16:07:05Z</time></trkpt><trkpt lat="43.32078956523223" lon="11.125191738575271"><ele>263.0</ele><time>2026-04-11T16:07:06Z</time></trkpt><trkpt lat="43.32084885429254" lon="11.125160176344194"><ele>263.0</ele><time>2026-04-11T16:07:08Z</time></trkpt><trkpt lat="43.32083839534073" lon="11.125074512675354"><ele>263.0</ele><time>2026-04-11T16:07:09Z</time></trkpt><trkpt lat="43.320956161277" lon="11.125125393836154"><ele>263.0</ele><time>2026-04-11T16:07:12Z</time></trkpt><trkpt lat="43.32103019541116" lon="11.125218535040643"><ele>263.0</ele><time>2026-04-11T16:07:13Z</time></trkpt><trkpt lat="43.321096945643575" lon="11.125318188726046"><ele>263.0</ele><time>2026-04-11T16:07:14Z</time></trkpt><trkpt lat="43.32115427890587" lon="11.125362076663633"><ele>263.0</ele><time>2026-04-11T16:07:15Z</time></trkpt><trkpt lat="43.32119991863253" lon="11.125287673242761"><ele>263.0</ele><time>2026-04-11T16:07:17Z</time></trkpt><trkpt lat="43.32111457994794" lon="11.125115807810415"><ele>263.0</ele><time>2026-04-11T16:07:19Z</time></trkpt><trkpt lat="43.32102537160828" lon="11.124995159242967"><ele>263.0</ele><time>2026-04-11T16:07:20Z</time></trkpt><trkpt lat="43.320951584535536" lon="11.12491773772508"><ele>263.0</ele><time>2026-04-11T16:07:21Z</time></trkpt><trkpt lat="43.32088125888865" lon="11.124881724258367"><ele>262.83333333333337</ele><time>2026-04-11T16:07:24Z</time></trkpt><trkpt lat="43.32094750600447" lon="11.124889949517275"><ele>262.6666666666667</ele><time>2026-04-11T16:07:29Z</time></trkpt><trkpt lat="43.32083275902366" lon="11.124862161356077"><ele>262.5</ele><time>2026-04-11T16:07:39Z</time></trkpt><trkpt lat="43.320732735528104" lon="11.124850157218741"><ele>262.3333333333333</ele><time>2026-04-11T16:07:41Z</time></trkpt><trkpt lat="43.32065684076306" lon="11.12482316585232"><ele>262.16666666666663</ele><time>2026-04-11T16:07:43Z</time></trkpt><trkpt lat="43.320715053616446" lon="11.124785363718207"><ele>262.0</ele><time>2026-04-11T16:07:46Z</time></trkpt><trkpt lat="43.32078194460477" lon="11.124804093227853"><ele>262.0</ele><time>2026-04-11T16:07:47Z</time></trkpt><trkpt lat="43.32087348571903" lon="11.124840269555875"><ele>262.0</ele><time>2026-04-11T16:07:48Z</time></trkpt><trkpt lat="43.32094788110193" lon="11.124876180249872"><ele>262.0</ele><time>2026-04-11T16:07:49Z</time></trkpt><trkpt lat="43.32103523456942" lon="11.124909798025064"><ele>263.0</ele><time>2026-04-11T16:07:51Z</time></trkpt></trkseg></trk></gpx>